Time;durP1;ratioP1;P1;durP2;ratioP2;P2;SDS_P1;SDS_P2;PMS_P1;PMS_P2;Temp;Humidity;BMP_temperature;BMP_pressure;BME280_temperature;BME280_humidity;BME280_pressure;Samples;Min_cycle;Max_cycle;Signal;HPM_P1;HPM_P2
2022/06/14 00:01:26;;;;;;;8.90;5.00;;;13.10;99.90;;;;;;5014392;28;20657;-68
2022/06/14 00:03:53;;;;;;;8.27;4.87;;;13.10;99.90;;;;;;5014745;28;20219;-68
2022/06/14 00:06:22;;;;;;;6.73;4.30;;;13.10;99.90;;;;;;5020254;28;20203;-68
2022/06/14 00:08:51;;;;;;;4.97;4.07;;;13.10;99.90;;;;;;5033375;28;20218;-68
2022/06/14 00:11:20;;;;;;;5.50;3.73;;;13.10;99.90;;;;;;5015299;28;20200;-68
2022/06/14 00:13:48;;;;;;;5.77;4.33;;;13.10;99.90;;;;;;5020213;28;20213;-67
2022/06/14 00:16:16;;;;;;;8.80;3.97;;;13.00;99.90;;;;;;5018305;28;20242;-68
2022/06/14 00:18:43;;;;;;;5.27;3.93;;;13.00;99.90;;;;;;5022904;28;20214;-69
2022/06/14 00:21:11;;;;;;;7.93;4.10;;;13.00;99.90;;;;;;5020078;28;20218;-67
2022/06/14 00:23:39;;;;;;;5.13;3.70;;;13.00;99.90;;;;;;5025790;28;20674;-68
2022/06/14 00:26:07;;;;;;;5.17;4.00;;;12.90;99.90;;;;;;5022010;28;20656;-68
2022/06/14 00:28:35;;;;;;;6.27;4.13;;;12.90;99.90;;;;;;5031289;28;20213;-67
2022/06/14 00:31:05;;;;;;;6.63;3.87;;;12.90;99.90;;;;;;5026091;28;20637;-68
2022/06/14 00:33:32;;;;;;;6.27;3.83;;;12.90;99.90;;;;;;5032794;28;20207;-68
2022/06/14 00:36:00;;;;;;;7.47;4.17;;;12.90;99.90;;;;;;5027708;28;20207;-68
2022/06/14 00:38:27;;;;;;;8.27;3.40;;;12.80;99.90;;;;;;5019936;28;20215;-68
2022/06/14 00:40:57;;;;;;;5.20;3.40;;;12.80;99.90;;;;;;5030103;28;20207;-68
2022/06/14 00:43:27;;;;;;;6.87;3.43;;;12.80;99.90;;;;;;5013294;28;20211;-67
2022/06/14 00:46:19;;;;;;;5.83;3.07;;;12.80;99.90;;;;;;5020295;28;20202;-68
2022/06/14 00:48:56;;;;;;;4.30;3.00;;;12.80;99.90;;;;;;5033798;28;20209;-68
2022/06/14 00:51:26;;;;;;;5.53;3.10;;;12.70;99.90;;;;;;5027679;28;20642;-68
2022/06/14 00:53:57;;;;;;;4.13;2.77;;;12.70;99.90;;;;;;5014805;28;20218;-67
2022/06/14 00:56:31;;;;;;;4.90;2.93;;;12.70;99.90;;;;;;5022393;28;20580;-68
2022/06/14 00:59:05;;;;;;;4.97;2.60;;;12.70;99.90;;;;;;5032721;28;20684;-68
2022/06/14 01:01:36;;;;;;;4.63;2.67;;;12.70;99.90;;;;;;5018158;28;20196;-70
2022/06/14 01:04:07;;;;;;;5.03;2.53;;;12.60;99.90;;;;;;5015192;28;20215;-69
2022/06/14 01:06:43;;;;;;;3.87;3.07;;;12.60;99.90;;;;;;5014064;28;20206;-70
2022/06/14 01:09:15;;;;;;;3.53;2.63;;;12.60;99.90;;;;;;5029144;28;20213;-69
2022/06/14 01:11:46;;;;;;;5.10;3.10;;;12.60;99.90;;;;;;5030227;28;20198;-69
2022/06/14 01:14:19;;;;;;;4.73;2.80;;;12.50;99.90;;;;;;5020291;28;20215;-70
2022/06/14 01:16:46;;;;;;;3.50;2.60;;;12.50;99.90;;;;;;5022465;28;20210;-69
2022/06/14 01:19:20;;;;;;;4.70;3.23;;;12.40;99.90;;;;;;5037119;28;20212;-70
2022/06/14 01:22:23;;;;;;;5.80;3.57;;;12.40;99.90;;;;;;5030371;28;20208;-69
2022/06/14 01:24:50;;;;;;;4.37;2.70;;;12.40;99.90;;;;;;5028534;28;20206;-69
2022/06/14 01:27:20;;;;;;;5.77;3.30;;;12.30;99.90;;;;;;5037328;28;20647;-71
2022/06/14 01:29:53;;;;;;;4.67;3.13;;;12.30;99.90;;;;;;5024653;28;20225;-69
2022/06/14 01:32:21;;;;;;;7.20;4.03;;;12.30;99.90;;;;;;5019050;28;20253;-70
2022/06/14 01:34:54;;;;;;;8.60;3.40;;;12.30;99.90;;;;;;5020127;28;20215;-70
2022/06/14 01:37:23;;;;;;;5.53;3.23;;;12.20;99.90;;;;;;5037529;28;20218;-69
2022/06/14 01:39:50;;;;;;;6.47;3.33;;;12.30;99.90;;;;;;5035113;28;20301;-69
2022/06/14 01:42:23;;;;;;;3.57;2.77;;;12.20;99.90;;;;;;5036028;28;20521;-69
2022/06/14 01:44:59;;;;;;;5.70;3.47;;;12.20;99.90;;;;;;5030327;28;20306;-69
2022/06/14 01:47:34;;;;;;;5.40;3.20;;;12.30;99.90;;;;;;5023248;28;20198;-71
2022/06/14 01:53:14;;;;;;;5.97;3.20;;;12.20;99.90;;;;;;5016676;28;20199;-69
2022/06/14 01:55:45;;;;;;;6.50;3.30;;;12.10;99.90;;;;;;5018826;28;20206;-70
2022/06/14 01:58:23;;;;;;;5.00;3.20;;;12.10;99.90;;;;;;5026320;28;20218;-69
2022/06/14 02:00:55;;;;;;;5.50;3.17;;;12.10;99.90;;;;;;5028887;28;20206;-69
2022/06/14 02:06:21;;;;;;;5.80;2.73;;;12.00;99.90;;;;;;5036111;28;20202;-69
2022/06/14 02:08:55;;;;;;;7.33;3.13;;;12.00;99.90;;;;;;5036754;28;20213;-70
2022/06/14 02:11:26;;;;;;;7.17;3.10;;;12.00;99.90;;;;;;5017078;28;20210;-70
2022/06/14 02:13:57;;;;;;;5.30;2.70;;;12.00;99.90;;;;;;5024163;28;20250;-69
2022/06/14 02:16:28;;;;;;;4.37;2.90;;;12.00;99.90;;;;;;5019762;28;20216;-71
2022/06/14 02:19:01;;;;;;;4.00;2.83;;;11.90;99.90;;;;;;5016192;28;20408;-69
2022/06/14 02:21:34;;;;;;;3.83;2.70;;;12.00;99.90;;;;;;5031444;28;20207;-69
2022/06/14 02:24:07;;;;;;;7.00;3.30;;;11.90;99.90;;;;;;5023754;28;20202;-69
2022/06/14 02:26:38;;;;;;;4.80;3.20;;;11.90;99.90;;;;;;5017266;28;20207;-69
2022/06/14 02:29:11;;;;;;;4.53;2.97;;;12.00;99.90;;;;;;5037640;28;20261;-69
2022/06/14 02:31:42;;;;;;;5.87;2.87;;;11.90;99.90;;;;;;5037421;28;20199;-69
2022/06/14 02:34:13;;;;;;;4.20;3.03;;;11.90;99.90;;;;;;5031587;28;20207;-69
2022/06/14 02:36:49;;;;;;;5.23;3.60;;;12.00;99.90;;;;;;5026708;28;20199;-69
2022/06/14 02:39:22;;;;;;;6.93;3.13;;;11.90;99.90;;;;;;5037562;28;20226;-70
2022/06/14 02:41:58;;;;;;;4.17;3.07;;;12.00;99.90;;;;;;5035857;28;20210;-70
2022/06/14 02:44:29;;;;;;;4.57;2.93;;;11.90;99.90;;;;;;5035441;28;20217;-69
2022/06/14 02:47:02;;;;;;;4.40;2.97;;;12.00;99.90;;;;;;5035230;28;20804;-69
2022/06/14 02:49:35;;;;;;;6.13;3.50;;;12.10;99.90;;;;;;5017272;28;20199;-70
2022/06/14 02:52:08;;;;;;;4.33;2.70;;;12.00;99.90;;;;;;5022739;28;20212;-69
2022/06/14 02:54:48;;;;;;;7.63;3.30;;;12.10;99.90;;;;;;5018193;28;20195;-69
2022/06/14 02:57:20;;;;;;;4.70;3.20;;;12.10;99.90;;;;;;5032029;28;20211;-70
2022/06/14 02:59:55;;;;;;;4.93;2.90;;;12.10;99.90;;;;;;5026255;28;20202;-70
2022/06/14 03:02:28;;;;;;;7.17;3.53;;;12.10;99.90;;;;;;5023544;28;20199;-69
2022/06/14 03:05:03;;;;;;;3.93;2.87;;;12.20;99.90;;;;;;5022100;28;20210;-69
2022/06/14 03:07:34;;;;;;;5.50;2.80;;;12.20;99.90;;;;;;5033207;28;20248;-70
2022/06/14 03:10:02;;;;;;;4.57;3.33;;;12.20;99.90;;;;;;5026727;28;20211;-70
2022/06/14 03:12:38;;;;;;;7.90;3.23;;;12.30;99.90;;;;;;5037682;28;20570;-69
2022/06/14 03:15:12;;;;;;;7.27;3.13;;;12.30;99.90;;;;;;5027355;28;20243;-69
2022/06/14 03:17:54;;;;;;;4.50;3.53;;;12.40;99.90;;;;;;5019631;28;20219;-69
2022/06/14 03:20:31;;;;;;;3.87;3.07;;;12.40;99.90;;;;;;5023029;28;20203;-70
2022/06/14 03:23:08;;;;;;;4.97;3.00;;;12.50;99.90;;;;;;5037378;28;20281;-69
2022/06/14 03:25:44;;;;;;;5.60;3.03;;;12.50;99.90;;;;;;5033628;28;20289;-69
2022/06/14 03:28:15;;;;;;;4.83;3.20;;;12.60;99.90;;;;;;5027062;28;20203;-70
2022/06/14 03:30:45;;;;;;;6.73;3.23;;;12.70;99.90;;;;;;5017469;28;20199;-69
2022/06/14 03:33:18;;;;;;;8.30;3.50;;;12.70;99.90;;;;;;5028750;28;20202;-69
2022/06/14 03:35:48;;;;;;;8.37;3.17;;;12.70;99.90;;;;;;5025829;28;20215;-69
2022/06/14 03:38:18;;;;;;;4.37;3.27;;;12.80;99.90;;;;;;5019628;28;20255;-70
2022/06/14 03:40:47;;;;;;;5.30;3.17;;;12.80;99.90;;;;;;5031296;28;20211;-70
2022/06/14 03:43:15;;;;;;;4.93;3.10;;;12.80;99.90;;;;;;5027366;28;20216;-69
2022/06/14 03:45:49;;;;;;;6.27;3.40;;;12.90;99.90;;;;;;5027631;28;20227;-70
2022/06/14 03:48:16;;;;;;;6.73;3.50;;;12.90;99.90;;;;;;5023261;28;20290;-69
2022/06/14 03:50:56;;;;;;;7.13;3.57;;;13.00;99.90;;;;;;5029622;28;20213;-70
2022/06/14 03:53:38;;;;;;;9.60;3.37;;;13.00;99.90;;;;;;5028120;28;20218;-69
2022/06/14 03:56:23;;;;;;;7.40;3.80;;;13.10;99.90;;;;;;5035151;28;20203;-70
2022/06/14 03:59:04;;;;;;;8.13;3.80;;;13.10;99.90;;;;;;5028493;28;20587;-69
2022/06/14 04:01:35;;;;;;;4.43;3.60;;;13.20;99.90;;;;;;5016183;28;20238;-70
2022/06/14 04:04:18;;;;;;;4.97;3.50;;;13.20;99.90;;;;;;5031320;28;20242;-69
2022/06/14 04:06:58;;;;;;;4.80;3.63;;;13.30;99.90;;;;;;5026847;28;20203;-69
2022/06/14 04:09:39;;;;;;;6.37;3.33;;;13.30;99.90;;;;;;5023366;28;20203;-69
2022/06/14 04:12:17;;;;;;;6.87;3.70;;;13.40;99.90;;;;;;5026978;28;20202;-69
2022/06/14 04:15:01;;;;;;;5.83;3.20;;;13.40;99.90;;;;;;5025117;28;20245;-69
2022/06/14 04:17:38;;;;;;;8.63;3.67;;;13.40;99.90;;;;;;5024469;28;20672;-69
2022/06/14 04:20:11;;;;;;;5.67;3.47;;;13.40;99.90;;;;;;5023008;28;20207;-69
2022/06/14 04:22:53;;;;;;;5.60;3.27;;;13.50;99.90;;;;;;5029666;28;20202;-69
2022/06/14 04:25:32;;;;;;;3.23;2.57;;;13.50;99.90;;;;;;5017007;28;20591;-70
2022/06/14 04:28:07;;;;;;;3.67;3.00;;;13.50;99.90;;;;;;5027645;28;20205;-69
2022/06/14 04:30:39;;;;;;;6.10;3.27;;;13.50;99.90;;;;;;5014511;28;20728;-69
2022/06/14 04:33:11;;;;;;;5.13;3.00;;;13.50;99.90;;;;;;5015482;28;20210;-69
2022/06/14 04:35:45;;;;;;;5.97;3.53;;;13.60;99.90;;;;;;5021663;28;20273;-70
2022/06/14 04:38:16;;;;;;;6.40;3.47;;;13.70;99.90;;;;;;5021307;28;20676;-70
2022/06/14 04:40:49;;;;;;;9.37;3.37;;;13.70;99.90;;;;;;5028565;28;20214;-70
2022/06/14 04:43:21;;;;;;;6.50;3.40;;;13.80;99.90;;;;;;5024843;28;20203;-69
2022/06/14 04:45:56;;;;;;;6.60;3.53;;;13.80;99.90;;;;;;5035165;28;20198;-70
2022/06/14 04:48:30;;;;;;;5.20;3.30;;;13.90;99.90;;;;;;5028487;28;20285;-69
2022/06/14 04:51:01;;;;;;;6.37;3.53;;;13.90;99.90;;;;;;5016045;28;20570;-69
2022/06/14 04:53:32;;;;;;;3.63;3.13;;;13.90;99.90;;;;;;5034411;28;20202;-69
2022/06/14 04:56:03;;;;;;;7.23;3.40;;;14.00;99.90;;;;;;5020846;28;20202;-71
2022/06/14 04:58:38;;;;;;;6.47;3.70;;;14.00;99.90;;;;;;5025614;28;20221;-70
2022/06/14 05:01:11;;;;;;;6.90;4.33;;;14.00;99.90;;;;;;5012130;28;20210;-69
2022/06/14 05:03:42;;;;;;;7.63;4.60;;;14.00;99.90;;;;;;5020780;28;20210;-69
2022/06/14 05:06:13;;;;;;;8.60;4.20;;;14.10;99.90;;;;;;5014226;28;20207;-69
2022/06/14 05:08:45;;;;;;;6.33;4.73;;;14.10;99.90;;;;;;5021694;28;20218;-69
2022/06/14 05:11:16;;;;;;;6.03;4.47;;;14.10;99.90;;;;;;5024656;28;20199;-70
2022/06/14 05:13:51;;;;;;;5.53;4.80;;;14.20;99.90;;;;;;5015549;28;20210;-69
2022/06/14 05:16:24;;;;;;;9.93;4.40;;;14.20;99.90;;;;;;5025781;28;20239;-70
2022/06/14 05:18:54;;;;;;;6.60;3.40;;;14.30;99.90;;;;;;5016609;28;20714;-70
2022/06/14 05:21:27;;;;;;;7.27;3.63;;;14.30;99.90;;;;;;5021274;28;20571;-70
2022/06/14 05:23:56;;;;;;;4.63;3.60;;;14.40;99.90;;;;;;5014002;28;20560;-70
2022/06/14 05:26:33;;;;;;;5.77;3.60;;;14.40;99.90;;;;;;5014854;28;20312;-70
2022/06/14 05:29:10;;;;;;;4.37;3.50;;;14.40;99.90;;;;;;5017067;28;20258;-69
2022/06/14 05:31:44;;;;;;;4.47;2.93;;;14.50;99.90;;;;;;5014045;28;20211;-69
2022/06/14 05:34:18;;;;;;;6.50;2.77;;;14.60;99.90;;;;;;5015406;28;20199;-70
2022/06/14 05:36:57;;;;;;;6.20;2.83;;;14.60;99.90;;;;;;5023654;28;20202;-70
2022/06/14 05:39:31;;;;;;;5.70;2.93;;;14.70;99.90;;;;;;5018034;28;20219;-70
2022/06/14 05:42:03;;;;;;;5.13;3.17;;;14.70;99.90;;;;;;5024338;28;20213;-69
2022/06/14 05:44:35;;;;;;;6.20;2.63;;;14.70;99.90;;;;;;5021833;28;20566;-70
2022/06/14 05:47:09;;;;;;;3.00;2.70;;;14.80;99.90;;;;;;5015262;28;20290;-74
2022/06/14 05:49:41;;;;;;;3.93;2.60;;;14.80;99.90;;;;;;5020985;28;20198;-73
2022/06/14 05:52:14;;;;;;;5.93;2.80;;;14.80;99.90;;;;;;5025317;28;20275;-75
2022/06/14 05:54:47;;;;;;;3.10;2.80;;;14.90;99.90;;;;;;5027807;28;20200;-74
2022/06/14 05:57:20;;;;;;;5.17;2.90;;;14.90;99.90;;;;;;5019424;28;20199;-72
2022/06/14 05:59:53;;;;;;;7.10;2.87;;;15.00;99.90;;;;;;5017029;28;20216;-73
2022/06/14 06:02:31;;;;;;;3.50;2.07;;;15.00;99.90;;;;;;5024369;28;20227;-73
2022/06/14 06:05:06;;;;;;;2.80;1.83;;;15.00;99.90;;;;;;5029212;28;20228;-73
2022/06/14 06:07:51;;;;;;;2.13;1.63;;;15.00;99.90;;;;;;5025355;28;20298;-74
2022/06/14 06:10:22;;;;;;;5.70;1.87;;;15.10;99.90;;;;;;5022746;28;20206;-72
2022/06/14 06:12:53;;;;;;;3.10;1.80;;;15.10;99.90;;;;;;5028402;28;20199;-73
2022/06/14 06:15:25;;;;;;;10.13;1.73;;;15.20;99.90;;;;;;5026436;28;20258;-73
2022/06/14 06:17:56;;;;;;;3.13;1.63;;;15.20;99.90;;;;;;5025390;28;20230;-75
2022/06/14 06:20:34;;;;;;;2.47;1.50;;;15.40;99.90;;;;;;5022257;28;20202;-75
2022/06/14 06:23:09;;;;;;;3.70;1.70;;;15.40;99.90;;;;;;5019876;28;20672;-73
2022/06/14 06:25:41;;;;;;;3.67;1.80;;;15.60;99.90;;;;;;5018871;28;20206;-72
2022/06/14 06:28:13;;;;;;;5.10;1.90;;;15.60;99.90;;;;;;5020044;28;20207;-72
2022/06/14 06:30:47;;;;;;;4.37;1.53;;;15.70;99.90;;;;;;5019619;28;20235;-72
2022/06/14 06:33:16;;;;;;;1.80;1.30;;;15.80;99.90;;;;;;5019461;28;20214;-73
2022/06/14 06:35:50;;;;;;;2.93;1.20;;;16.00;99.90;;;;;;5021405;28;20213;-74
2022/06/14 06:38:27;;;;;;;2.10;1.80;;;16.10;99.90;;;;;;5019257;28;20265;-73
2022/06/14 06:43:51;;;;;;;3.13;1.30;;;16.20;99.90;;;;;;5025059;28;20694;-73
2022/06/14 06:46:21;;;;;;;4.33;1.40;;;16.30;99.90;;;;;;5017059;28;20211;-73
2022/06/14 06:48:54;;;;;;;2.97;1.37;;;16.40;99.90;;;;;;5018860;28;20238;-75
2022/06/14 06:51:26;;;;;;;3.27;1.50;;;16.50;99.90;;;;;;5019605;28;20195;-74
2022/06/14 06:54:02;;;;;;;3.13;1.10;;;16.60;99.90;;;;;;5022699;28;20708;-74
2022/06/14 06:56:33;;;;;;;4.47;1.30;;;16.60;99.90;;;;;;5023876;28;20199;-74
2022/06/14 06:59:04;;;;;;;1.87;1.30;;;16.60;99.90;;;;;;5023342;28;20222;-74
2022/06/14 07:01:36;;;;;;;3.50;1.60;;;16.60;99.90;;;;;;5028418;28;20623;-76
2022/06/14 07:04:06;;;;;;;3.30;1.17;;;16.70;99.90;;;;;;5027855;28;20206;-72
2022/06/14 07:06:38;;;;;;;6.17;1.10;;;16.80;99.90;;;;;;5020273;28;20210;-71
2022/06/14 07:09:11;;;;;;;4.37;1.23;;;16.90;99.90;;;;;;5016835;28;20203;-73
2022/06/14 07:11:42;;;;;;;4.93;1.33;;;16.90;99.90;;;;;;5015180;28;20203;-71
2022/06/14 07:14:16;;;;;;;2.13;1.23;;;17.00;99.90;;;;;;5015502;28;20215;-71
2022/06/14 07:16:48;;;;;;;3.00;1.10;;;17.10;99.90;;;;;;5014898;28;20600;-72
2022/06/14 07:19:22;;;;;;;1.60;1.20;;;17.30;99.90;;;;;;5023095;28;20230;-72
2022/06/14 07:21:53;;;;;;;2.97;1.47;;;17.40;99.90;;;;;;5028567;28;20227;-72
2022/06/14 07:24:24;;;;;;;2.40;1.20;;;17.60;99.90;;;;;;5018269;28;20207;-73
2022/06/14 07:26:55;;;;;;;3.20;1.57;;;17.70;99.90;;;;;;5027385;28;20214;-72
2022/06/14 07:29:28;;;;;;;2.37;1.30;;;17.70;99.90;;;;;;5030119;28;20222;-71
2022/06/14 07:32:00;;;;;;;4.30;1.43;;;17.80;99.90;;;;;;5032957;28;20209;-72
2022/06/14 07:34:28;;;;;;;2.23;1.30;;;17.80;99.90;;;;;;5019734;28;20205;-71
2022/06/14 07:37:03;;;;;;;2.83;1.10;;;17.90;99.90;;;;;;5025642;28;20214;-71
2022/06/14 07:39:38;;;;;;;2.23;1.03;;;17.90;99.90;;;;;;5019581;28;20210;-71
2022/06/14 07:42:13;;;;;;;2.38;0.95;;;17.90;99.90;;;;;;5020885;28;20206;-73
2022/06/14 07:44:48;;;;;;;2.97;0.80;;;18.00;99.90;;;;;;5017499;28;20221;-72
2022/06/14 07:47:23;;;;;;;1.45;0.88;;;18.00;99.90;;;;;;5033731;28;20201;-73
2022/06/14 07:49:57;;;;;;;1.92;1.20;;;18.10;99.90;;;;;;5036969;28;20538;-73
2022/06/14 07:52:31;;;;;;;2.77;1.00;;;18.20;99.90;;;;;;5018855;28;20221;-73
2022/06/14 07:55:06;;;;;;;2.40;0.93;;;18.20;99.90;;;;;;5018191;28;20219;-72
2022/06/14 07:57:37;;;;;;;0.93;0.88;;;18.20;99.90;;;;;;5036943;28;20651;-72
2022/06/14 08:03:04;;;;;;;1.98;0.80;;;18.50;99.90;;;;;;5021477;28;20206;-72
2022/06/14 08:05:36;;;;;;;2.45;0.88;;;18.60;99.90;;;;;;5020279;28;20199;-72
2022/06/14 08:08:06;;;;;;;1.40;0.80;;;18.70;99.90;;;;;;5023072;28;20215;-72
2022/06/14 08:10:39;;;;;;;3.10;0.90;;;18.80;99.90;;;;;;5014045;28;20211;-71
2022/06/14 08:13:08;;;;;;;1.08;0.80;;;18.80;99.90;;;;;;5020061;28;20588;-71
2022/06/14 08:15:38;;;;;;;1.90;1.08;;;18.70;99.90;;;;;;5024477;28;20300;-71
2022/06/14 08:18:12;;;;;;;3.40;1.10;;;18.60;99.90;;;;;;5018101;28;20207;-71
2022/06/14 08:20:42;;;;;;;2.80;0.98;;;18.70;99.90;;;;;;5016853;28;20201;-72
2022/06/14 08:23:15;;;;;;;3.33;1.17;;;18.80;99.90;;;;;;5023535;28;20761;-72
2022/06/14 08:25:45;;;;;;;2.20;1.70;;;18.90;99.90;;;;;;5015793;28;20517;-72
2022/06/14 08:28:17;;;;;;;3.47;1.63;;;19.10;99.90;;;;;;5019071;28;20199;-72
2022/06/14 08:30:48;;;;;;;1.70;1.00;;;19.20;99.90;;;;;;5023189;28;20203;-75
2022/06/14 08:33:23;;;;;;;3.53;1.30;;;19.20;99.90;;;;;;5015684;28;20211;-72
2022/06/14 08:35:53;;;;;;;1.70;1.00;;;19.10;99.80;;;;;;5016601;28;20454;-72
2022/06/14 08:38:23;;;;;;;1.27;0.90;;;19.20;99.40;;;;;;5015343;28;20207;-72
2022/06/14 08:41:06;;;;;;;3.38;1.60;;;19.20;99.10;;;;;;5015032;28;20297;-71
2022/06/14 08:43:40;;;;;;;2.33;1.38;;;19.20;99.00;;;;;;5016726;28;20215;-71
2022/06/14 08:46:20;;;;;;;3.42;1.17;;;19.10;98.40;;;;;;5014985;28;20206;-72
2022/06/14 08:49:07;;;;;;;5.25;2.42;;;19.10;97.50;;;;;;5019987;28;20433;-71
2022/06/14 08:51:35;;;;;;;2.53;1.27;;;19.00;96.60;;;;;;5015226;28;20207;-75
2022/06/14 08:54:28;;;;;;;6.85;1.80;;;19.00;96.70;;;;;;5016398;28;20253;-71
2022/06/14 08:57:07;;;;;;;1.93;1.10;;;19.00;96.40;;;;;;5009994;28;20206;-74
2022/06/14 08:59:50;;;;;;;1.85;1.10;;;19.00;96.40;;;;;;5023857;28;20222;-71
2022/06/14 09:02:56;;;;;;;1.80;0.98;;;19.10;95.80;;;;;;5022106;28;20282;-72
2022/06/14 09:05:59;;;;;;;5.40;1.10;;;19.00;94.90;;;;;;5017372;28;20211;-73
2022/06/14 09:08:55;;;;;;;5.35;1.15;;;19.20;94.60;;;;;;4989995;28;20218;-70
2022/06/14 09:11:58;;;;;;;3.92;1.55;;;19.20;94.70;;;;;;5019252;28;20205;-68
2022/06/14 09:15:09;;;;;;;3.13;1.13;;;19.30;94.10;;;;;;5017300;28;20611;-69
2022/06/14 09:18:12;;;;;;;4.93;1.00;;;19.40;93.50;;;;;;4975228;28;20215;-69
2022/06/14 09:20:45;;;;;;;2.72;2.00;;;19.30;93.10;;;;;;5017494;28;20226;-69
2022/06/14 09:23:23;;;;;;;2.30;0.98;;;19.40;93.20;;;;;;5016072;28;20540;-68
2022/06/14 09:26:34;;;;;;;1.40;0.90;;;19.50;92.30;;;;;;5013304;28;20218;-69
2022/06/14 09:29:55;;;;;;;3.35;1.13;;;19.70;91.30;;;;;;5012963;28;20218;-70
2022/06/14 09:33:10;;;;;;;1.33;0.85;;;19.80;90.70;;;;;;4952133;28;20202;-69
2022/06/14 09:35:58;;;;;;;0.98;0.52;;;19.80;90.20;;;;;;4959116;28;20210;-69
2022/06/14 09:39:05;;;;;;;0.98;0.77;;;19.80;89.40;;;;;;5027580;28;20214;-69
2022/06/14 09:41:59;;;;;;;1.58;0.85;;;19.80;88.70;;;;;;5018405;28;20648;-69
2022/06/14 09:44:53;;;;;;;1.98;0.90;;;19.70;88.20;;;;;;5021953;28;20214;-68
2022/06/14 09:47:40;;;;;;;2.55;0.90;;;19.60;88.10;;;;;;5024054;28;20210;-69
2022/06/14 09:50:33;;;;;;;1.30;0.90;;;19.40;88.10;;;;;;5018278;28;20399;-70
2022/06/14 09:53:37;;;;;;;1.77;0.90;;;19.20;89.30;;;;;;5024959;28;20637;-69
2022/06/14 09:56:28;;;;;;;2.30;0.95;;;19.00;90.30;;;;;;5017437;28;20213;-69
2022/06/14 09:59:10;;;;;;;3.42;1.30;;;18.80;91.10;;;;;;5018616;28;20206;-69
2022/06/14 10:01:48;;;;;;;1.38;0.90;;;18.60;91.40;;;;;;5021945;28;20241;-69
2022/06/14 10:04:40;;;;;;;4.22;1.48;;;18.60;91.70;;;;;;5016170;28;20207;-69
2022/06/14 10:07:35;;;;;;;3.38;1.00;;;18.50;91.60;;;;;;5023442;28;20215;-69
2022/06/14 10:10:18;;;;;;;1.38;0.60;;;18.50;91.70;;;;;;5016851;28;20234;-69
2022/06/14 10:13:14;;;;;;;2.25;1.20;;;18.60;92.00;;;;;;5020586;28;20207;-70
2022/06/14 10:15:49;;;;;;;2.35;1.30;;;18.80;92.40;;;;;;5019992;28;20254;-70
2022/06/14 10:18:46;;;;;;;1.73;0.80;;;19.10;92.30;;;;;;5022703;28;20218;-70
2022/06/14 10:21:19;;;;;;;3.88;1.10;;;19.30;92.00;;;;;;5016641;28;20200;-72
2022/06/14 10:24:02;;;;;;;1.15;1.00;;;19.60;91.40;;;;;;5020834;28;20199;-73
2022/06/14 10:30:02;;;;;;;1.20;0.80;;;20.30;90.30;;;;;;5022034;28;20218;-73
2022/06/14 10:32:57;;;;;;;2.15;1.08;;;20.30;89.70;;;;;;5019423;28;20210;-73
2022/06/14 10:35:33;;;;;;;2.95;0.80;;;20.30;89.30;;;;;;4997935;28;20221;-72
2022/06/14 10:38:22;;;;;;;3.75;0.80;;;20.20;88.40;;;;;;5033534;28;20206;-73
2022/06/14 10:40:57;;;;;;;3.22;1.08;;;20.10;88.70;;;;;;5017958;28;20226;-73
2022/06/14 10:43:32;;;;;;;1.05;0.60;;;19.80;88.20;;;;;;5017398;28;20222;-71
2022/06/14 10:46:02;;;;;;;2.60;0.77;;;19.60;88.30;;;;;;5024860;28;20233;-76
2022/06/14 10:49:09;;;;;;;3.33;1.52;;;19.40;88.10;;;;;;5025317;28;20203;-74
2022/06/14 10:51:59;;;;;;;2.45;0.98;;;19.10;88.40;;;;;;5016871;28;20202;-74
2022/06/14 10:54:39;;;;;;;3.70;1.00;;;19.00;88.90;;;;;;5022554;28;20217;-73
2022/06/14 10:57:26;;;;;;;2.00;0.70;;;19.00;88.80;;;;;;5023375;28;20676;-71
2022/06/14 11:00:09;;;;;;;3.13;0.70;;;18.90;88.50;;;;;;5027162;28;20259;-73
2022/06/14 11:02:54;;;;;;;1.52;0.90;;;18.90;89.30;;;;;;5027328;28;20200;-73
2022/06/14 11:05:27;;;;;;;3.08;1.02;;;18.90;89.00;;;;;;5016868;28;20269;-74
2022/06/14 11:08:10;;;;;;;1.75;0.90;;;18.90;89.60;;;;;;5019609;28;20238;-73
2022/06/14 11:10:59;;;;;;;4.00;0.90;;;18.90;89.60;;;;;;5016698;28;20203;-71
2022/06/14 11:13:37;;;;;;;2.50;1.15;;;18.80;89.20;;;;;;5017967;28;20211;-72
2022/06/14 11:16:11;;;;;;;2.95;1.08;;;18.90;88.50;;;;;;5029379;28;20257;-73
2022/06/14 11:19:01;;;;;;;2.03;1.00;;;19.00;87.60;;;;;;5031838;28;20204;-72
2022/06/14 11:21:42;;;;;;;1.50;0.90;;;19.20;87.10;;;;;;5016942;28;20798;-71
2022/06/14 11:24:15;;;;;;;1.33;0.80;;;19.20;86.70;;;;;;5019346;28;20317;-72
2022/06/14 11:26:56;;;;;;;1.05;0.80;;;19.30;86.60;;;;;;5016662;28;20203;-72
2022/06/14 11:29:31;;;;;;;2.97;0.95;;;19.20;86.00;;;;;;5020274;28;20242;-72
2022/06/14 11:32:04;;;;;;;3.25;0.77;;;19.20;86.10;;;;;;5019285;28;20203;-73
2022/06/14 11:34:44;;;;;;;1.80;1.00;;;19.10;86.40;;;;;;5016925;28;20207;-71
2022/06/14 11:37:27;;;;;;;1.95;0.90;;;19.10;87.10;;;;;;5015776;28;20207;-69
2022/06/14 11:39:59;;;;;;;1.52;0.88;;;19.20;86.60;;;;;;5023901;28;20215;-72
2022/06/14 11:42:30;;;;;;;3.60;0.68;;;19.20;86.60;;;;;;5016252;28;20206;-73
2022/06/14 11:45:23;;;;;;;2.63;0.75;;;19.20;86.60;;;;;;5019866;28;20218;-71
2022/06/14 11:47:57;;;;;;;1.67;0.85;;;19.10;86.70;;;;;;5015810;28;20667;-70
2022/06/14 11:50:34;;;;;;;2.35;0.70;;;18.90;86.70;;;;;;5015992;28;20246;-69
2022/06/14 11:53:13;;;;;;;3.17;1.13;;;18.80;86.90;;;;;;5026611;28;20206;-70
2022/06/14 11:55:48;;;;;;;1.55;0.80;;;18.70;86.90;;;;;;5021631;28;20210;-71
2022/06/14 11:58:21;;;;;;;2.35;0.80;;;18.60;87.20;;;;;;5019159;28;20213;-71
2022/06/14 12:01:10;;;;;;;1.63;0.90;;;18.60;87.20;;;;;;5022452;28;20223;-70
2022/06/14 12:04:03;;;;;;;4.83;1.00;;;18.70;87.30;;;;;;5014522;28;20660;-70
2022/06/14 12:06:38;;;;;;;3.20;0.90;;;19.00;86.90;;;;;;5021565;28;20570;-71
2022/06/14 12:09:46;;;;;;;2.08;0.95;;;19.50;85.60;;;;;;5017071;28;20195;-71
2022/06/14 12:12:23;;;;;;;5.10;0.95;;;20.10;84.70;;;;;;5009556;28;20206;-71
2022/06/14 12:15:03;;;;;;;1.40;0.90;;;20.40;80.70;;;;;;5023883;28;20718;-71
2022/06/14 12:17:36;;;;;;;5.30;1.15;;;20.40;78.50;;;;;;5022568;28;20718;-72
2022/06/14 12:20:09;;;;;;;2.58;0.90;;;20.40;78.20;;;;;;5022876;28;20219;-73
2022/06/14 12:22:46;;;;;;;1.92;0.88;;;20.20;78.10;;;;;;5023258;28;20218;-71
2022/06/14 12:28:06;;;;;;;4.72;1.08;;;20.00;79.10;;;;;;5024729;28;20245;-71
2022/06/14 12:30:36;;;;;;;4.35;1.02;;;19.90;79.60;;;;;;5015325;28;20223;-75
2022/06/14 12:33:09;;;;;;;3.20;0.90;;;19.80;80.20;;;;;;5024326;28;20200;-75
2022/06/14 12:35:41;;;;;;;1.88;0.70;;;19.60;80.70;;;;;;5021990;28;20366;-74
2022/06/14 12:38:16;;;;;;;1.98;1.00;;;19.50;80.70;;;;;;5018018;28;20583;-74
2022/06/14 12:40:54;;;;;;;4.93;1.00;;;19.40;81.20;;;;;;5018948;28;20702;-76
2022/06/14 12:43:25;;;;;;;2.67;1.27;;;19.30;82.00;;;;;;5022587;28;20587;-75
2022/06/14 12:45:56;;;;;;;4.00;1.20;;;19.20;83.20;;;;;;5020984;28;20267;-73
2022/06/14 12:48:35;;;;;;;5.45;0.95;;;19.10;84.10;;;;;;5025212;28;20727;-77
2022/06/14 12:51:10;;;;;;;3.20;1.17;;;19.10;84.40;;;;;;5014440;28;20214;-72
2022/06/14 12:53:41;;;;;;;2.15;1.00;;;19.00;85.20;;;;;;5015154;28;20203;-69
2022/06/14 12:56:14;;;;;;;2.65;1.00;;;19.00;85.50;;;;;;5015208;28;20199;-69
2022/06/14 12:58:52;;;;;;;3.38;1.17;;;19.00;85.50;;;;;;5018411;28;20206;-71
2022/06/14 13:01:29;;;;;;;3.08;1.20;;;18.90;85.50;;;;;;5018324;28;20210;-72
2022/06/14 13:03:59;;;;;;;3.90;1.05;;;18.90;85.80;;;;;;5013341;28;20211;-70
2022/06/14 13:06:53;;;;;;;4.72;1.25;;;18.80;86.20;;;;;;5011673;28;20235;-68
2022/06/14 13:09:29;;;;;;;2.80;1.20;;;18.80;86.60;;;;;;5014278;28;20249;-70
2022/06/14 13:12:08;;;;;;;4.10;1.20;;;18.80;86.40;;;;;;5017829;28;20687;-69
2022/06/14 13:14:44;;;;;;;2.42;1.10;;;18.70;86.70;;;;;;5017884;28;20239;-69
2022/06/14 13:17:26;;;;;;;2.47;1.20;;;18.80;87.50;;;;;;5025449;28;20212;-71
2022/06/14 13:19:59;;;;;;;2.92;1.02;;;19.00;87.60;;;;;;5022701;28;20225;-70
2022/06/14 13:22:59;;;;;;;2.80;1.10;;;19.10;86.50;;;;;;5021972;28;20664;-70
2022/06/14 13:25:41;;;;;;;2.65;0.93;;;19.30;85.90;;;;;;5012256;28;20664;-70
2022/06/14 13:28:20;;;;;;;4.60;1.05;;;19.40;84.70;;;;;;5016126;28;20577;-69
2022/06/14 13:30:53;;;;;;;2.40;1.13;;;19.60;84.00;;;;;;5026057;28;20290;-69
2022/06/14 13:33:31;;;;;;;4.05;1.05;;;19.70;83.80;;;;;;5017264;28;20207;-69
2022/06/14 13:36:05;;;;;;;1.55;1.13;;;19.80;83.50;;;;;;5019681;28;20690;-68
2022/06/14 13:38:40;;;;;;;2.08;1.10;;;19.90;82.80;;;;;;5022542;28;20203;-70
2022/06/14 13:41:14;;;;;;;3.25;1.10;;;19.90;82.10;;;;;;5016629;28;20263;-70
2022/06/14 13:43:50;;;;;;;3.65;1.00;;;19.90;81.50;;;;;;5017863;28;20219;-69
2022/06/14 13:46:24;;;;;;;4.38;1.00;;;19.90;80.80;;;;;;5017836;28;20207;-70
2022/06/14 13:49:01;;;;;;;10.15;1.30;;;19.90;80.80;;;;;;5016097;28;20300;-69
2022/06/14 13:51:34;;;;;;;1.67;1.10;;;19.90;80.10;;;;;;5021904;28;20230;-71
2022/06/14 13:54:11;;;;;;;3.08;0.90;;;19.80;79.90;;;;;;5014987;28;20207;-70